Rothville, Missouri
Current Conditions -  °F | °C
As of 11:55 PM on Saturday 25 Oct 2014 (Local Time) from KIRK Reporting Station
Clear Clear  
Wind Chill: 50°   Ceiling: Unl
Heat Index: 50°   Visibility: 10mi
Dew Point: 43°   Wind: 10mph
Humidity: 77%   Direction: 50°NE
Pressure: 30.05"   Gusts: NA
Location:  39.65°N, 93.06°W
Report Text: KIRK 260455Z AUTO 05009KT 10SM CLR 10/06 A3005 RMK AO2 SLP178 T01000061
Loading
Personal Weather Stations






























Interactive Weather Map
Tropical Storm Tracking
New forecast layout! Learn more

10-Day Weather Forecast

Advertisements
Track Severe Weather on mobile